createdAt,value
2019-03-23T00:00:19.608Z,49.60
2019-03-23T00:01:19.589Z,49.80
2019-03-23T00:02:19.578Z,50.70
2019-03-23T00:03:19.568Z,52.10
2019-03-23T00:04:19.557Z,52.00
2019-03-23T00:05:19.546Z,54.20
2019-03-23T00:06:30.224Z,51.30
2019-03-23T00:07:20.522Z,51.40
2019-03-23T00:08:19.513Z,52.60
2019-03-23T00:09:19.504Z,49.20
2019-03-23T00:10:19.494Z,50.30
2019-03-23T00:11:19.480Z,50.70
2019-03-23T00:12:19.469Z,52.50
2019-03-23T00:13:19.459Z,53.60
2019-03-23T00:14:19.449Z,51.30
2019-03-23T00:15:19.441Z,49.70
2019-03-23T00:16:19.427Z,49.60
2019-03-23T00:17:19.454Z,49.10
2019-03-23T00:18:19.420Z,51.60
2019-03-23T00:19:19.401Z,47.20
2019-03-23T00:20:19.383Z,53.70
2019-03-23T00:21:19.372Z,52.90
2019-03-23T00:22:19.363Z,54.00
2019-03-23T00:23:19.351Z,55.60
2019-03-23T00:24:19.343Z,56.20
2019-03-23T00:25:19.335Z,51.50
2019-03-23T00:26:19.321Z,49.10
2019-03-23T00:27:19.311Z,47.40
2019-03-23T00:28:19.301Z,49.50
2019-03-23T00:29:19.290Z,48.60
2019-03-23T00:30:19.279Z,49.20
2019-03-23T00:31:19.265Z,51.00
2019-03-23T00:32:19.255Z,48.10
2019-03-23T00:33:19.242Z,49.80
2019-03-23T00:34:19.233Z,57.60
2019-03-23T00:35:19.228Z,44.80
2019-03-23T00:36:19.213Z,47.10
2019-03-23T00:37:19.201Z,48.90
2019-03-23T00:38:19.192Z,49.20
2019-03-23T00:39:19.179Z,49.00
2019-03-23T00:40:19.169Z,50.20
2019-03-23T00:41:19.157Z,42.30
2019-03-23T00:42:19.154Z,45.50
2019-03-23T00:43:19.135Z,46.60
2019-03-23T00:44:19.124Z,55.00
2019-03-23T00:45:19.115Z,55.80
2019-03-23T00:46:19.105Z,46.50
2019-03-23T00:47:19.091Z,50.10
2019-03-23T00:48:19.091Z,52.00
2019-03-23T00:49:19.071Z,48.40
2019-03-23T00:50:19.059Z,52.30
2019-03-23T00:51:19.047Z,54.80
2019-03-23T00:52:19.080Z,52.50
2019-03-23T00:53:19.028Z,42.70
2019-03-23T00:54:19.019Z,50.90
2019-03-23T00:55:19.004Z,46.70
2019-03-23T00:56:18.997Z,56.90
2019-03-23T00:57:18.983Z,47.50
2019-03-23T00:58:18.974Z,50.30
2019-03-23T00:59:18.964Z,53.10
2019-03-23T01:00:18.954Z,51.00
2019-03-23T01:01:18.942Z,55.40
2019-03-23T01:02:18.930Z,53.40
2019-03-23T01:03:18.920Z,56.30
2019-03-23T01:04:18.912Z,56.40
2019-03-23T01:05:18.901Z,60.10
2019-03-23T01:06:18.886Z,52.30
2019-03-23T01:07:18.876Z,53.70
2019-03-23T01:08:18.867Z,55.90
2019-03-23T01:09:18.853Z,52.90
2019-03-23T01:10:18.844Z,55.60
2019-03-23T01:11:18.833Z,55.30
2019-03-23T01:12:18.820Z,53.70
2019-03-23T01:13:18.813Z,49.10
2019-03-23T01:14:18.803Z,54.20
2019-03-23T01:15:18.790Z,53.70
2019-03-23T01:16:18.777Z,57.00
2019-03-23T01:17:18.767Z,56.20
2019-03-23T01:18:18.758Z,53.50
2019-03-23T01:19:18.746Z,49.40
2019-03-23T01:20:18.737Z,51.90
2019-03-23T01:21:18.723Z,59.40
2019-03-23T01:22:18.716Z,54.20
2019-03-23T01:23:18.703Z,52.80
2019-03-23T01:24:18.694Z,57.80
2019-03-23T01:25:20.832Z,56.20
2019-03-23T01:26:18.672Z,53.70
2019-03-23T01:27:18.660Z,55.10
2019-03-23T01:28:18.654Z,55.40
2019-03-23T01:29:18.640Z,59.20
2019-03-23T01:30:18.628Z,55.00
2019-03-23T01:31:18.616Z,51.90
2019-03-23T01:32:18.608Z,52.20
2019-03-23T01:33:18.597Z,51.60
2019-03-23T01:34:18.584Z,60.10
2019-03-23T01:35:18.575Z,85.60
2019-03-23T01:36:18.568Z,60.80
2019-03-23T01:37:18.553Z,58.60
2019-03-23T01:38:18.544Z,48.80
2019-03-23T01:39:18.532Z,53.60
2019-03-23T01:40:18.522Z,56.80
2019-03-23T01:41:18.513Z,54.90
2019-03-23T01:42:18.501Z,51.30
2019-03-23T01:43:18.516Z,52.70
2019-03-23T01:44:18.476Z,48.30
2019-03-23T01:45:18.466Z,46.10
2019-03-23T01:46:18.455Z,45.40
2019-03-23T01:47:18.444Z,45.20
2019-03-23T01:48:18.439Z,44.90
2019-03-23T01:49:18.423Z,44.00
2019-03-23T01:50:18.412Z,46.20
2019-03-23T01:51:18.401Z,44.70
2019-03-23T01:52:18.393Z,44.40
2019-03-23T01:53:18.381Z,46.40
2019-03-23T01:54:18.369Z,46.30
2019-03-23T01:55:18.357Z,47.00
2019-03-23T01:56:18.347Z,48.60
2019-03-23T01:57:18.340Z,50.10
2019-03-23T01:58:18.329Z,52.80
2019-03-23T01:59:18.314Z,53.30
2019-03-23T02:00:18.308Z,52.60
2019-03-23T02:01:18.293Z,56.30
2019-03-23T02:02:18.283Z,52.10
2019-03-23T02:03:18.273Z,55.10
2019-03-23T02:04:18.264Z,53.00
2019-03-23T02:05:18.250Z,54.20
2019-03-23T02:06:18.246Z,55.60
2019-03-23T02:07:18.228Z,55.50
2019-03-23T02:08:18.221Z,56.60
2019-03-23T02:09:18.206Z,60.50
2019-03-23T02:10:18.196Z,58.80
2019-03-23T02:11:18.186Z,54.90
2019-03-23T02:12:18.174Z,56.00
2019-03-23T02:13:18.164Z,62.10
2019-03-23T02:14:18.155Z,57.10
2019-03-23T02:15:18.144Z,57.10
2019-03-23T02:16:18.135Z,54.40
2019-03-23T02:17:18.123Z,57.40
2019-03-23T02:18:18.116Z,57.10
2019-03-23T02:19:18.100Z,57.00
2019-03-23T02:20:18.093Z,58.70
2019-03-23T02:21:18.081Z,58.90
2019-03-23T02:22:18.068Z,62.20
2019-03-23T02:23:18.064Z,59.20
2019-03-23T02:24:18.045Z,62.70
2019-03-23T02:25:18.036Z,58.20
2019-03-23T02:26:18.034Z,58.30
2019-03-23T02:27:18.016Z,60.20
2019-03-23T02:28:18.007Z,65.80
2019-03-23T02:29:17.992Z,66.20
2019-03-23T02:30:17.980Z,73.00
2019-03-23T02:31:17.972Z,76.40
2019-03-23T02:32:17.961Z,78.00
2019-03-23T02:33:17.954Z,81.20
2019-03-23T02:34:17.946Z,84.20
2019-03-23T02:35:17.931Z,86.00
2019-03-23T02:36:17.932Z,88.40
2019-03-23T02:37:27.551Z,82.70
2019-03-23T02:38:18.902Z,79.50
2019-03-23T02:39:17.892Z,90.40
2019-03-23T02:40:17.880Z,90.00
2019-03-23T02:41:17.862Z,84.60
2019-03-23T02:42:17.854Z,84.20
2019-03-23T02:43:17.842Z,82.00
2019-03-23T02:44:17.831Z,89.80
2019-03-23T02:45:17.830Z,91.80
2019-03-23T02:46:17.825Z,87.60
2019-03-23T02:47:17.803Z,94.90
2019-03-23T02:48:17.802Z,91.20
2019-03-23T02:49:17.780Z,89.50
2019-03-23T02:50:17.831Z,87.50
2019-03-23T02:51:17.756Z,87.50
2019-03-23T02:52:17.744Z,87.00
2019-03-23T02:53:17.738Z,92.60
2019-03-23T02:54:17.722Z,90.90
2019-03-23T02:55:17.716Z,94.50
2019-03-23T02:56:17.719Z,86.60
2019-03-23T02:57:17.691Z,83.20
2019-03-23T02:58:21.618Z,81.90
2019-03-23T02:59:17.670Z,87.20
2019-03-23T03:00:17.660Z,87.50
2019-03-23T03:01:17.653Z,95.60
2019-03-23T03:02:17.637Z,93.70
2019-03-23T03:03:17.626Z,86.00
2019-03-23T03:04:17.618Z,90.70
2019-03-23T03:05:17.604Z,83.30
2019-03-23T03:06:17.596Z,92.30
2019-03-23T03:07:17.581Z,91.60
2019-03-23T03:08:17.578Z,93.70
2019-03-23T03:09:17.562Z,93.10
2019-03-23T03:10:17.551Z,90.00
2019-03-23T03:11:17.584Z,91.40
2019-03-23T03:12:17.536Z,95.10
2019-03-23T03:13:17.516Z,89.30
2019-03-23T03:14:17.507Z,86.40
2019-03-23T03:15:17.497Z,91.10
2019-03-23T03:16:17.485Z,80.90
2019-03-23T03:17:17.473Z,84.20
2019-03-23T03:18:17.465Z,85.90
2019-03-23T03:19:17.457Z,94.00
2019-03-23T03:20:17.441Z,95.80
2019-03-23T03:21:17.437Z,81.30
2019-03-23T03:22:17.420Z,83.30
2019-03-23T03:23:17.415Z,90.00
2019-03-23T03:24:17.401Z,80.80
2019-03-23T03:25:17.392Z,88.20
2019-03-23T03:26:17.378Z,90.30
2019-03-23T03:27:17.367Z,76.10
2019-03-23T03:28:17.357Z,84.60
2019-03-23T03:29:17.345Z,78.50
2019-03-23T03:30:17.340Z,86.20
2019-03-23T03:31:17.324Z,76.00
2019-03-23T03:32:17.316Z,87.10
2019-03-23T03:33:17.306Z,86.10
2019-03-23T03:34:17.292Z,87.10
2019-03-23T03:35:17.285Z,85.70
2019-03-23T03:36:17.271Z,84.10
2019-03-23T03:37:17.258Z,79.30
2019-03-23T03:38:17.260Z,86.40
2019-03-23T03:39:17.255Z,83.40
2019-03-23T03:40:17.228Z,88.20
2019-03-23T03:41:17.214Z,87.30
2019-03-23T03:42:17.205Z,77.50
2019-03-23T03:43:17.192Z,77.50
2019-03-23T03:44:17.182Z,76.40
2019-03-23T03:45:17.176Z,86.90
2019-03-23T03:46:17.162Z,74.70
2019-03-23T03:47:17.160Z,79.90
2019-03-23T03:48:17.144Z,83.70
2019-03-23T03:49:17.130Z,84.20
2019-03-23T03:50:17.119Z,85.20
2019-03-23T03:51:17.106Z,89.80
2019-03-23T03:52:17.096Z,85.20
2019-03-23T03:53:17.086Z,85.60
2019-03-23T03:54:17.075Z,88.20
2019-03-23T03:55:17.062Z,86.70
2019-03-23T03:56:17.053Z,84.20
2019-03-23T03:57:17.044Z,86.50
2019-03-23T03:58:17.038Z,82.60
2019-03-23T03:59:17.019Z,87.00
2019-03-23T04:00:17.008Z,84.90
2019-03-23T04:01:16.998Z,75.30
2019-03-23T04:02:16.992Z,91.90
2019-03-23T04:03:16.978Z,84.30
2019-03-23T04:04:16.968Z,88.50
2019-03-23T04:05:16.981Z,89.40
2019-03-23T04:06:16.946Z,88.20
2019-03-23T04:07:16.936Z,81.80
2019-03-23T04:08:16.929Z,78.10
2019-03-23T04:09:16.912Z,88.50
2019-03-23T04:10:16.904Z,93.00
2019-03-23T04:11:16.902Z,87.70
2019-03-23T04:12:16.882Z,87.10
2019-03-23T04:13:16.869Z,80.20
2019-03-23T04:14:16.864Z,88.00
2019-03-23T04:15:16.850Z,90.50
2019-03-23T04:16:16.840Z,88.20
2019-03-23T04:17:16.831Z,87.40
2019-03-23T04:18:16.818Z,88.00
2019-03-23T04:19:16.807Z,85.20
2019-03-23T04:20:16.798Z,81.10
2019-03-23T04:21:16.785Z,88.80
2019-03-23T04:22:16.774Z,85.00
2019-03-23T04:23:16.762Z,89.20
2019-03-23T04:24:16.753Z,92.50
2019-03-23T04:25:16.743Z,90.50
2019-03-23T04:26:16.748Z,81.60
2019-03-23T04:27:16.725Z,79.40
2019-03-23T04:28:16.708Z,85.40
2019-03-23T04:29:16.699Z,91.10
2019-03-23T04:30:16.689Z,88.10
2019-03-23T04:31:16.683Z,84.20
2019-03-23T04:32:16.665Z,88.10
2019-03-23T04:33:16.654Z,84.40
2019-03-23T04:34:16.646Z,81.00
2019-03-23T04:35:16.639Z,80.60
2019-03-23T04:36:16.622Z,87.10
2019-03-23T04:37:16.610Z,88.10
2019-03-23T04:38:22.543Z,81.60
2019-03-23T04:39:17.590Z,83.80
2019-03-23T04:40:16.585Z,84.60
2019-03-23T04:41:16.572Z,84.30
2019-03-23T04:42:16.559Z,85.10
2019-03-23T04:43:16.546Z,81.80
2019-03-23T04:44:16.535Z,81.20
2019-03-23T04:45:16.527Z,85.80
2019-03-23T04:46:16.517Z,85.80
2019-03-23T04:47:16.505Z,78.60
2019-03-23T04:48:16.493Z,74.10
2019-03-23T04:49:16.481Z,76.60
2019-03-23T04:50:16.473Z,76.60
2019-03-23T04:51:16.464Z,79.10
2019-03-23T04:52:16.450Z,80.20
2019-03-23T04:53:16.438Z,72.90
2019-03-23T04:54:16.427Z,72.60
2019-03-23T04:55:16.418Z,77.10
2019-03-23T04:56:16.411Z,83.70
2019-03-23T04:57:16.394Z,86.00
2019-03-23T04:58:16.390Z,86.10
2019-03-23T04:59:16.373Z,81.40
2019-03-23T05:00:16.386Z,72.90
2019-03-23T05:01:16.353Z,84.90
2019-03-23T05:02:16.342Z,79.20
2019-03-23T05:03:16.330Z,68.60
2019-03-23T05:04:16.318Z,81.50
2019-03-23T05:05:16.320Z,81.10
2019-03-23T05:06:16.303Z,79.20
2019-03-23T05:07:16.290Z,71.20
2019-03-23T05:08:16.282Z,82.30
2019-03-23T05:09:16.266Z,74.30
2019-03-23T05:10:16.253Z,69.80
2019-03-23T05:11:16.247Z,64.10
2019-03-23T05:12:16.233Z,73.10
2019-03-23T05:13:16.226Z,73.30
2019-03-23T05:14:16.210Z,74.20
2019-03-23T05:15:16.201Z,73.80
2019-03-23T05:16:16.191Z,67.30
2019-03-23T05:17:16.184Z,79.50
2019-03-23T05:18:16.175Z,73.50
2019-03-23T05:19:16.155Z,79.00
2019-03-23T05:20:16.148Z,72.00
2019-03-23T05:21:16.144Z,73.10
2019-03-23T05:22:16.125Z,79.20
2019-03-23T05:23:16.114Z,74.30
2019-03-23T05:24:16.106Z,75.30
2019-03-23T05:25:16.095Z,79.50
2019-03-23T05:26:16.087Z,78.10
2019-03-23T05:27:16.073Z,76.70
2019-03-23T05:28:16.063Z,77.00
2019-03-23T05:29:16.050Z,79.70
2019-03-23T05:30:16.041Z,80.60
2019-03-23T05:31:16.037Z,68.00
2019-03-23T05:32:16.019Z,75.80
2019-03-23T05:33:16.012Z,83.90
2019-03-23T05:34:15.998Z,72.20
2019-03-23T05:35:15.986Z,81.40
2019-03-23T05:36:15.978Z,87.60
2019-03-23T05:37:15.963Z,68.90
2019-03-23T05:38:15.964Z,83.40
2019-03-23T05:39:15.943Z,81.70
2019-03-23T05:40:15.939Z,84.50
2019-03-23T05:41:15.922Z,84.00
2019-03-23T05:42:15.911Z,70.50
2019-03-23T05:43:15.899Z,79.60
2019-03-23T05:44:15.893Z,72.90
2019-03-23T05:45:15.878Z,74.30
2019-03-23T05:46:15.866Z,74.90
2019-03-23T05:47:15.856Z,75.00
2019-03-23T05:48:15.883Z,78.80
2019-03-23T05:49:15.834Z,78.50
2019-03-23T05:50:15.822Z,74.80
2019-03-23T05:51:15.815Z,67.80
2019-03-23T05:52:15.802Z,64.90
2019-03-23T05:53:15.789Z,51.40
2019-03-23T05:54:15.780Z,75.50
2019-03-23T05:55:15.768Z,54.30
2019-03-23T05:56:15.759Z,52.80
2019-03-23T05:57:15.752Z,50.90
2019-03-23T05:58:15.739Z,71.90
2019-03-23T05:59:15.728Z,69.50
2019-03-23T06:00:15.717Z,78.90
2019-03-23T06:01:15.703Z,72.50
2019-03-23T06:02:15.700Z,79.60
2019-03-23T06:03:15.686Z,63.10
2019-03-23T06:04:15.671Z,70.70
2019-03-23T06:05:15.659Z,71.90
2019-03-23T06:06:15.652Z,70.00
2019-03-23T06:07:15.638Z,68.90
2019-03-23T06:08:15.631Z,64.80
2019-03-23T06:09:15.621Z,67.40
2019-03-23T06:10:15.609Z,65.20
2019-03-23T06:11:15.635Z,73.50
2019-03-23T06:12:17.618Z,62.00
2019-03-23T06:13:15.577Z,63.30
2019-03-23T06:14:15.563Z,60.00
2019-03-23T06:15:15.555Z,64.80
2019-03-23T06:16:17.824Z,66.00
2019-03-23T06:17:15.529Z,63.20
2019-03-23T06:18:15.528Z,61.90
2019-03-23T06:19:15.508Z,66.70
2019-03-23T06:20:15.498Z,66.40
2019-03-23T06:21:15.491Z,62.70
2019-03-23T06:22:15.478Z,58.40
2019-03-23T06:23:15.468Z,57.00
2019-03-23T06:24:15.458Z,54.60
2019-03-23T06:25:15.530Z,58.10
2019-03-23T06:26:15.432Z,53.30
2019-03-23T06:27:15.423Z,63.20
2019-03-23T06:28:15.416Z,59.50
2019-03-23T06:29:15.401Z,55.30
2019-03-23T06:30:15.392Z,64.40
2019-03-23T06:31:15.397Z,64.20
2019-03-23T06:32:15.373Z,52.80
2019-03-23T06:33:15.362Z,63.60
2019-03-23T06:34:15.347Z,56.40
2019-03-23T06:35:15.337Z,58.50
2019-03-23T06:36:15.331Z,57.40
2019-03-23T06:37:15.313Z,53.30
2019-03-23T06:38:16.376Z,57.40
2019-03-23T06:39:15.293Z,48.70
2019-03-23T06:40:15.283Z,43.30
2019-03-23T06:41:15.311Z,50.60
2019-03-23T06:42:15.265Z,53.30
2019-03-23T06:43:15.250Z,55.90
2019-03-23T06:44:15.238Z,44.90
2019-03-23T06:45:15.227Z,43.50
2019-03-23T06:46:15.220Z,39.80
2019-03-23T06:47:15.209Z,33.50
2019-03-23T06:48:15.251Z,42.90
2019-03-23T06:49:15.185Z,36.60
2019-03-23T06:50:15.174Z,38.80
2019-03-23T06:51:15.163Z,35.40
2019-03-23T06:52:15.153Z,31.60
2019-03-23T06:53:15.144Z,33.40
2019-03-23T06:54:15.133Z,32.30
2019-03-23T06:55:15.120Z,33.80
2019-03-23T06:56:15.109Z,29.60
2019-03-23T06:57:15.101Z,32.50
2019-03-23T06:58:15.094Z,30.60
2019-03-23T06:59:15.083Z,28.00
2019-03-23T07:00:15.151Z,26.60
2019-03-23T07:01:15.106Z,25.70
2019-03-23T07:02:15.046Z,26.90
2019-03-23T07:03:15.032Z,27.50
2019-03-23T07:04:15.023Z,27.80
2019-03-23T07:05:15.015Z,24.30
2019-03-23T07:06:15.009Z,24.60
2019-03-23T07:07:14.989Z,23.60
2019-03-23T07:08:14.981Z,24.50
2019-03-23T07:09:16.331Z,22.80
2019-03-23T07:10:14.957Z,23.40
2019-03-23T07:11:14.951Z,22.70
2019-03-23T07:12:14.936Z,22.10
2019-03-23T07:13:14.927Z,20.80
2019-03-23T07:14:14.914Z,22.20
2019-03-23T07:15:19.769Z,21.30
2019-03-23T07:16:15.892Z,19.80
2019-03-23T07:17:14.882Z,20.90
2019-03-23T07:18:14.871Z,20.60
2019-03-23T07:19:14.860Z,20.50
2019-03-23T07:20:14.850Z,20.90
2019-03-23T07:21:14.837Z,20.40
2019-03-23T07:22:14.828Z,20.30
2019-03-23T07:23:14.816Z,20.50
2019-03-23T07:24:14.803Z,20.80
2019-03-23T07:25:14.796Z,21.10
2019-03-23T07:26:14.783Z,20.90
2019-03-23T07:27:14.772Z,21.10
2019-03-23T07:28:14.771Z,21.80
2019-03-23T07:29:14.754Z,20.60
2019-03-23T07:30:14.738Z,21.30
2019-03-23T07:31:14.726Z,21.40
2019-03-23T07:32:14.715Z,21.10
2019-03-23T07:33:14.706Z,21.10
2019-03-23T07:34:14.698Z,22.10
2019-03-23T07:35:14.695Z,21.50
2019-03-23T07:36:14.675Z,21.50
2019-03-23T07:37:14.664Z,21.80
2019-03-23T07:38:14.652Z,20.40
2019-03-23T07:39:14.642Z,20.50
2019-03-23T07:40:14.633Z,20.50
2019-03-23T07:41:14.618Z,21.20
2019-03-23T07:42:14.607Z,21.00
2019-03-23T07:43:14.610Z,20.60
2019-03-23T07:44:14.588Z,21.30
2019-03-23T07:45:14.575Z,20.60
2019-03-23T07:46:14.567Z,20.90
2019-03-23T07:47:14.553Z,21.10
2019-03-23T07:48:14.544Z,21.20
2019-03-23T07:49:14.531Z,21.00
2019-03-23T07:50:14.537Z,21.40
2019-03-23T07:51:14.510Z,21.70
2019-03-23T07:52:14.528Z,21.70
2019-03-23T07:53:14.490Z,22.10
2019-03-23T07:54:14.476Z,21.50
2019-03-23T07:55:14.469Z,22.30
2019-03-23T07:56:14.455Z,21.90
2019-03-23T07:57:14.446Z,21.60
2019-03-23T07:58:14.435Z,21.70
2019-03-23T07:59:14.420Z,21.90
2019-03-23T08:00:14.410Z,21.30
2019-03-23T08:01:14.399Z,21.90
2019-03-23T08:02:14.389Z,20.90
2019-03-23T08:03:14.391Z,22.20
2019-03-23T08:04:14.368Z,22.30
2019-03-23T08:05:14.354Z,22.80
2019-03-23T08:06:14.345Z,21.70
2019-03-23T08:07:14.335Z,22.40
2019-03-23T08:08:14.331Z,22.70
2019-03-23T08:09:20.311Z,22.00
2019-03-23T08:10:15.306Z,21.90
2019-03-23T08:11:14.291Z,21.50
2019-03-23T08:12:14.280Z,22.10
2019-03-23T08:13:14.308Z,22.60
2019-03-23T08:14:14.258Z,22.50
2019-03-23T08:15:14.256Z,22.60
2019-03-23T08:16:14.239Z,22.80
2019-03-23T08:17:14.227Z,23.20
2019-03-23T08:18:14.229Z,22.00
2019-03-23T08:19:14.205Z,21.60
2019-03-23T08:20:14.196Z,22.80
2019-03-23T08:21:14.183Z,22.40
2019-03-23T08:22:14.173Z,22.70
2019-03-23T08:23:14.162Z,23.00
2019-03-23T08:24:14.152Z,22.80
2019-03-23T08:25:14.143Z,22.40
2019-03-23T08:26:14.132Z,23.40
2019-03-23T08:27:14.122Z,22.10
2019-03-23T08:28:14.111Z,22.70
2019-03-23T08:29:14.098Z,22.60
2019-03-23T08:30:14.095Z,23.40
2019-03-23T08:31:14.084Z,22.50
2019-03-23T08:32:14.081Z,23.20
2019-03-23T08:33:14.058Z,23.10
2019-03-23T08:34:14.052Z,22.50
2019-03-23T08:35:14.036Z,22.30
2019-03-23T08:36:14.026Z,23.50
2019-03-23T08:37:14.011Z,22.90
2019-03-23T08:38:14.002Z,23.00
2019-03-23T08:39:13.996Z,23.80
2019-03-23T08:40:13.982Z,23.40
2019-03-23T08:41:13.972Z,23.30
2019-03-23T08:42:13.962Z,23.00
2019-03-23T08:43:13.978Z,23.00
2019-03-23T08:44:13.948Z,22.50
2019-03-23T08:45:13.933Z,23.90
2019-03-23T08:46:13.919Z,22.40
2019-03-23T08:47:13.913Z,22.30
2019-03-23T08:48:13.898Z,24.30
2019-03-23T08:49:13.886Z,22.80
2019-03-23T08:50:13.889Z,22.60
2019-03-23T08:51:13.871Z,22.80
2019-03-23T08:52:13.861Z,23.30
2019-03-23T08:53:13.844Z,23.00
2019-03-23T08:54:13.834Z,24.00
2019-03-23T08:55:13.822Z,23.10
2019-03-23T08:56:13.812Z,23.70
2019-03-23T08:57:13.814Z,23.60
2019-03-23T08:58:13.795Z,22.80
2019-03-23T08:59:13.783Z,23.60
2019-03-23T09:00:13.774Z,22.50
2019-03-23T09:01:13.765Z,23.40
2019-03-23T09:02:13.750Z,23.70
2019-03-23T09:03:13.739Z,23.60
2019-03-23T09:04:13.730Z,24.00
2019-03-23T09:05:13.722Z,24.20
2019-03-23T09:06:13.711Z,24.40
2019-03-23T09:07:13.732Z,23.80
2019-03-23T09:08:13.689Z,22.80
2019-03-23T09:09:13.680Z,23.60
2019-03-23T09:10:13.671Z,23.30
2019-03-23T09:11:20.523Z,22.40
2019-03-23T09:12:14.646Z,23.00
2019-03-23T09:13:13.635Z,22.20
2019-03-23T09:14:13.626Z,23.40
2019-03-23T09:15:13.627Z,23.10
2019-03-23T09:16:13.610Z,23.20
2019-03-23T09:17:13.598Z,22.70
2019-03-23T09:18:13.596Z,22.60
2019-03-23T09:19:13.581Z,23.30
2019-03-23T09:20:13.566Z,24.60
2019-03-23T09:21:13.569Z,22.90
2019-03-23T09:22:13.575Z,23.90
2019-03-23T09:23:13.545Z,23.60
2019-03-23T09:24:13.535Z,23.10
2019-03-23T09:25:13.515Z,23.30
2019-03-23T09:26:13.793Z,23.30
2019-03-23T09:27:13.498Z,23.60
2019-03-23T09:28:13.481Z,24.00
2019-03-23T09:29:13.472Z,23.40
2019-03-23T09:30:13.462Z,23.80
2019-03-23T09:31:13.456Z,23.40
2019-03-23T09:32:13.443Z,24.00
2019-03-23T09:33:13.431Z,23.70
2019-03-23T09:34:13.418Z,23.20
2019-03-23T09:35:13.410Z,22.50
2019-03-23T09:36:13.400Z,22.50
2019-03-23T09:37:13.390Z,23.00
2019-03-23T09:38:13.381Z,23.50
2019-03-23T09:39:13.369Z,23.20
2019-03-23T09:40:13.358Z,23.20
2019-03-23T09:41:13.348Z,23.60
2019-03-23T09:42:13.338Z,23.20
2019-03-23T09:43:13.390Z,22.80
2019-03-23T09:44:13.329Z,22.00
2019-03-23T09:45:14.427Z,22.10
2019-03-23T09:46:13.297Z,23.20
2019-03-23T09:47:13.285Z,22.00
2019-03-23T09:48:13.277Z,22.10
2019-03-23T09:49:13.265Z,22.20
2019-03-23T09:50:13.270Z,22.10
2019-03-23T09:51:13.246Z,21.90
2019-03-23T09:52:13.241Z,22.40
2019-03-23T09:53:13.226Z,22.60
2019-03-23T09:54:13.217Z,22.10
2019-03-23T09:55:13.204Z,22.00
2019-03-23T09:56:13.215Z,22.50
2019-03-23T09:57:13.191Z,20.80
2019-03-23T09:58:13.172Z,22.20
2019-03-23T09:59:13.165Z,21.40
2019-03-23T10:00:13.154Z,20.40
2019-03-23T10:01:13.148Z,21.30
2019-03-23T10:02:13.150Z,22.20
2019-03-23T10:03:13.164Z,21.80
2019-03-23T10:04:13.115Z,23.60
2019-03-23T10:05:13.111Z,22.90
2019-03-23T10:06:13.104Z,22.20
2019-03-23T10:07:13.084Z,22.00
2019-03-23T10:08:14.039Z,21.80
2019-03-23T10:09:13.072Z,22.20
2019-03-23T10:10:21.255Z,21.60
2019-03-23T10:11:14.055Z,21.90
2019-03-23T10:12:13.033Z,20.50
2019-03-23T10:13:13.027Z,20.20
2019-03-23T10:14:13.017Z,19.60
2019-03-23T10:15:13.005Z,20.80
2019-03-23T10:16:12.993Z,21.00
2019-03-23T10:17:12.985Z,21.10
2019-03-23T10:18:12.972Z,20.30
2019-03-23T10:19:12.959Z,21.20
2019-03-23T10:20:12.950Z,21.00
2019-03-23T10:21:12.943Z,20.30
2019-03-23T10:22:12.930Z,20.80
2019-03-23T10:23:12.928Z,20.80
2019-03-23T10:24:12.912Z,20.60
2019-03-23T10:25:12.901Z,21.20
2019-03-23T10:26:12.895Z,21.90
2019-03-23T10:27:12.974Z,21.00
2019-03-23T10:28:12.871Z,22.80
2019-03-23T10:29:12.864Z,21.00
2019-03-23T10:30:12.857Z,20.80
2019-03-23T10:31:12.840Z,20.20
2019-03-23T10:32:12.830Z,19.30
2019-03-23T10:33:12.819Z,20.40
2019-03-23T10:34:12.806Z,20.60
2019-03-23T10:35:12.796Z,20.60
2019-03-23T10:36:12.794Z,20.80
2019-03-23T10:37:12.774Z,21.20
2019-03-23T10:38:12.769Z,20.80
2019-03-23T10:39:12.758Z,20.70
2019-03-23T10:40:12.746Z,20.00
2019-03-23T10:41:12.736Z,20.30
2019-03-23T10:42:12.731Z,20.30
2019-03-23T10:43:12.719Z,20.30
2019-03-23T10:44:12.709Z,20.00
2019-03-23T10:45:12.704Z,20.10
2019-03-23T10:46:12.687Z,19.80
2019-03-23T10:47:12.722Z,19.60
2019-03-23T10:48:12.673Z,20.40
2019-03-23T10:49:12.661Z,20.60
2019-03-23T10:50:12.647Z,20.90
2019-03-23T10:51:12.640Z,20.30
2019-03-23T10:52:12.634Z,20.70
2019-03-23T10:53:15.614Z,20.30
2019-03-23T10:54:13.605Z,20.50
2019-03-23T10:55:12.594Z,20.00
2019-03-23T10:56:12.583Z,20.00
2019-03-23T10:57:12.573Z,19.60
2019-03-23T10:58:12.564Z,19.30
2019-03-23T10:59:12.553Z,20.70
2019-03-23T11:00:12.544Z,20.20
2019-03-23T11:01:12.534Z,20.00
2019-03-23T11:02:12.524Z,19.90
2019-03-23T11:03:12.513Z,20.60
2019-03-23T11:04:12.504Z,20.70
2019-03-23T11:05:12.494Z,20.70
2019-03-23T11:06:12.483Z,19.60
2019-03-23T11:07:12.476Z,21.50
2019-03-23T11:08:12.469Z,20.10
2019-03-23T11:09:12.457Z,20.60
2019-03-23T11:10:12.457Z,20.20
2019-03-23T11:11:12.440Z,20.30
2019-03-23T11:12:12.425Z,19.20
2019-03-23T11:13:12.416Z,20.80
2019-03-23T11:14:12.407Z,20.80
2019-03-23T11:15:12.397Z,20.10
2019-03-23T11:16:12.396Z,21.40
2019-03-23T11:17:12.377Z,21.60
2019-03-23T11:18:12.372Z,21.20
2019-03-23T11:19:13.530Z,20.80
2019-03-23T11:20:12.351Z,21.40
2019-03-23T11:21:12.489Z,22.40
2019-03-23T11:22:12.336Z,21.80
2019-03-23T11:23:12.317Z,21.40
2019-03-23T11:24:12.307Z,21.50
2019-03-23T11:25:12.294Z,20.70
2019-03-23T11:26:12.290Z,21.90
2019-03-23T11:27:12.277Z,21.80
2019-03-23T11:28:12.273Z,21.10
2019-03-23T11:29:12.259Z,20.90
2019-03-23T11:30:12.245Z,21.30
2019-03-23T11:31:12.235Z,20.50
2019-03-23T11:32:12.226Z,22.00
2019-03-23T11:33:12.223Z,21.30
2019-03-23T11:34:17.833Z,21.70
2019-03-23T11:35:13.325Z,22.60
2019-03-23T11:36:12.186Z,22.80
2019-03-23T11:37:12.282Z,22.10
2019-03-23T11:38:12.206Z,22.10
2019-03-23T11:39:12.153Z,22.70
2019-03-23T11:40:12.147Z,23.80
2019-03-23T11:41:12.132Z,23.30
2019-03-23T11:42:12.124Z,22.50
2019-03-23T11:43:12.112Z,23.20
2019-03-23T11:44:12.103Z,21.90
2019-03-23T11:45:12.091Z,24.20
2019-03-23T11:46:12.084Z,24.20
2019-03-23T11:47:12.076Z,23.70
2019-03-23T11:48:12.063Z,24.10
2019-03-23T11:49:12.056Z,24.60
2019-03-23T11:50:12.040Z,25.10
2019-03-23T11:51:12.031Z,25.00
2019-03-23T11:52:12.024Z,24.80
2019-03-23T11:53:12.011Z,25.60
2019-03-23T11:54:12.001Z,26.30
2019-03-23T11:55:11.989Z,26.00
2019-03-23T11:56:11.980Z,26.90
2019-03-23T11:57:11.970Z,27.30
2019-03-23T11:58:11.964Z,27.30
2019-03-23T11:59:11.947Z,27.00
2019-03-23T12:00:11.945Z,27.80
2019-03-23T12:01:11.933Z,29.50
2019-03-23T12:02:11.917Z,28.50
2019-03-23T12:03:11.910Z,29.00
2019-03-23T12:04:11.900Z,29.20
2019-03-23T12:05:11.887Z,28.60
2019-03-23T12:06:11.878Z,27.80
2019-03-23T12:07:11.865Z,29.50
2019-03-23T12:08:11.864Z,28.20
2019-03-23T12:09:11.845Z,27.70
2019-03-23T12:10:11.842Z,27.30
2019-03-23T12:11:11.825Z,25.70
2019-03-23T12:12:11.813Z,25.10
2019-03-23T12:13:11.808Z,26.20
2019-03-23T12:14:11.794Z,26.60
2019-03-23T12:15:11.785Z,26.10
2019-03-23T12:16:11.774Z,28.00
2019-03-23T12:17:11.791Z,28.40
2019-03-23T12:18:11.752Z,28.30
2019-03-23T12:19:11.768Z,27.40
2019-03-23T12:20:11.731Z,28.70
2019-03-23T12:21:11.727Z,29.50
2019-03-23T12:22:11.711Z,28.80
2019-03-23T12:23:11.702Z,29.10
2019-03-23T12:24:11.691Z,28.20
2019-03-23T12:25:11.681Z,28.90
2019-03-23T12:26:11.666Z,30.00
2019-03-23T12:27:11.657Z,28.80
2019-03-23T12:28:11.652Z,29.20
2019-03-23T12:29:11.637Z,29.20
2019-03-23T12:30:11.627Z,28.80
2019-03-23T12:31:11.614Z,28.80
2019-03-23T12:32:11.608Z,29.90
2019-03-23T12:33:11.594Z,29.60
2019-03-23T12:34:11.589Z,29.50
2019-03-23T12:35:11.575Z,30.40
2019-03-23T12:36:11.568Z,30.10
2019-03-23T12:37:11.552Z,28.80
2019-03-23T12:38:11.545Z,29.40
2019-03-23T12:39:11.530Z,28.60
2019-03-23T12:40:11.527Z,30.50
2019-03-23T12:41:22.750Z,29.70
2019-03-23T12:42:12.498Z,29.50
2019-03-23T12:43:11.487Z,30.20
2019-03-23T12:44:11.476Z,29.30
2019-03-23T12:45:11.468Z,29.50
2019-03-23T12:46:11.458Z,28.70
2019-03-23T12:47:11.461Z,29.20
2019-03-23T12:48:11.437Z,28.80
2019-03-23T12:49:11.425Z,28.80
2019-03-23T12:50:11.414Z,28.10
2019-03-23T12:51:11.404Z,27.90
2019-03-23T12:52:11.402Z,28.60